Terminal Aerodrome Forecast
Issued by NWS

Home | Current Version | Previous Version | Text Only | Print | Product List | Glossary Off
Versions: 1 2 3 4 5 6 7 8 9 10 11 12 13 14

000
FTUS43 KICT 211130
TAFHUT
TAF
KHUT 211130Z 2112/2212 24005KT P6SM FEW200
     FM211800 17004KT P6SM SCT150
     FM212300 10007KT P6SM BKN040
     FM220200 02008KT P6SM VCSH OVC012=

USA.gov is the U.S. government's official web portal to all federal, state and local government web resources and services.